Time,TemperatureF,DewpointF,PressureIn,WindDirection,WindDirectionDegrees,WindSpeedMPH,WindSpeedGustMPH,Humidity,HourlyPrecipIn,Conditions,Clouds,dailyrainin,SoftwareType,DateUTC
2013-03-02 00:00:00,24.8,24.1,28.77,West,270,2.0,3.0,97,0.00,,,0.05,meteohub,2013-03-02 06:00:00,
2013-03-02 00:05:00,23.9,23.2,28.77,West,270,2.0,3.0,97,0.00,,,0.00,meteohub,2013-03-02 06:05:00,
2013-03-02 00:10:00,23.9,23.2,28.77,SW,225,2.0,3.0,97,0.00,,,0.00,meteohub,2013-03-02 06:10:00,
2013-03-02 00:15:00,24.1,23.5,28.77,West,270,4.0,4.0,98,0.00,,,0.00,meteohub,2013-03-02 06:15:00,
2013-03-02 00:20:00,24.1,23.5,28.77,SW,225,4.0,4.0,98,0.00,,,0.00,meteohub,2013-03-02 06:20:00,
2013-03-02 00:25:00,24.1,23.5,28.77,NW,315,2.0,4.0,98,0.00,,,0.00,meteohub,2013-03-02 06:25:00,
2013-03-02 00:30:00,24.1,23.5,28.77,West,270,2.0,4.0,98,0.00,,,0.00,meteohub,2013-03-02 06:30:00,
2013-03-02 00:35:00,23.9,23.4,28.77,North,0,2.0,5.0,98,0.00,,,0.00,meteohub,2013-03-02 06:35:00,
2013-03-02 00:40:00,23.9,23.4,28.78,SW,225,1.0,6.0,98,0.00,,,0.00,meteohub,2013-03-02 06:40:00,
2013-03-02 00:45:00,23.9,23.4,28.78,NW,315,1.0,6.0,98,0.00,,,0.00,meteohub,2013-03-02 06:45:00,
2013-03-02 00:50:00,23.9,23.4,28.77,SW,225,2.0,6.0,98,0.00,,,0.00,meteohub,2013-03-02 06:50:00,
2013-03-02 00:55:00,23.9,23.4,28.77,West,270,2.0,6.0,98,0.00,,,0.00,meteohub,2013-03-02 06:55:00,
2013-03-02 01:00:00,23.7,23.5,28.78,West,270,4.0,4.0,99,0.00,,,0.00,meteohub,2013-03-02 07:00:00,
2013-03-02 01:05:00,23.7,23.2,28.78,West,270,2.0,4.0,98,0.00,,,0.00,meteohub,2013-03-02 07:05:00,
2013-03-02 01:10:00,23.7,23.5,28.77,East,90,2.0,4.0,99,0.00,,,0.00,meteohub,2013-03-02 07:10:00,
2013-03-02 01:15:00,23.7,23.5,28.77,North,0,2.0,4.0,99,0.00,,,0.00,meteohub,2013-03-02 07:15:00,
2013-03-02 01:20:00,23.7,23.5,28.77,SW,225,3.0,4.0,99,0.00,,,0.00,meteohub,2013-03-02 07:20:00,
2013-03-02 01:26:00,23.7,23.5,28.77,NW,315,2.0,4.0,99,0.00,,,0.00,meteohub,2013-03-02 07:26:00,
2013-03-02 01:31:00,23.7,23.5,28.77,SW,225,2.0,3.0,99,0.00,,,0.00,meteohub,2013-03-02 07:31:00,
2013-03-02 01:36:00,23.7,23.5,28.77,SW,225,2.0,3.0,99,0.00,,,0.00,meteohub,2013-03-02 07:36:00,
2013-03-02 01:41:00,23.9,23.7,28.78,NW,315,2.0,5.0,99,0.00,,,0.00,meteohub,2013-03-02 07:41:00,
2013-03-02 01:46:00,23.9,23.7,28.77,North,0,2.0,5.0,99,0.00,,,0.00,meteohub,2013-03-02 07:46:00,
2013-03-02 01:51:00,24.1,23.9,28.77,West,270,2.0,5.0,99,0.00,,,0.00,meteohub,2013-03-02 07:51:00,
2013-03-02 01:56:00,24.1,23.9,28.77,West,270,4.0,5.0,99,0.00,,,0.00,meteohub,2013-03-02 07:56:00,
2013-03-02 02:01:00,24.3,24.1,28.77,West,270,2.0,5.0,99,0.00,,,0.00,meteohub,2013-03-02 08:01:00,
2013-03-02 02:06:00,24.3,24.1,28.77,North,0,3.0,7.0,99,0.00,,,0.00,meteohub,2013-03-02 08:06:00,
2013-03-02 02:11:00,24.3,24.1,28.77,West,270,3.0,7.0,99,0.00,,,0.00,meteohub,2013-03-02 08:11:00,
2013-03-02 02:16:00,24.3,23.7,28.77,West,270,3.0,7.0,98,0.00,,,0.00,meteohub,2013-03-02 08:16:00,
2013-03-02 02:21:00,24.3,23.7,28.77,NE,45,4.0,5.0,98,0.00,,,0.00,meteohub,2013-03-02 08:21:00,
2013-03-02 02:26:00,24.3,23.7,28.77,West,270,1.0,5.0,98,0.00,,,0.00,meteohub,2013-03-02 08:26:00,
2013-03-02 02:31:00,24.3,23.7,28.76,West,270,2.0,4.0,98,0.00,,,0.00,meteohub,2013-03-02 08:31:00,
2013-03-02 02:36:00,24.3,23.7,28.76,NW,315,2.0,4.0,98,0.00,,,0.00,meteohub,2013-03-02 08:36:00,
2013-03-02 02:41:00,24.3,23.5,28.77,SW,225,2.0,4.0,97,0.00,,,0.00,meteohub,2013-03-02 08:41:00,
2013-03-02 02:46:00,24.3,23.5,28.76,East,90,2.0,4.0,97,0.00,,,0.00,meteohub,2013-03-02 08:46:00,
2013-03-02 02:51:00,24.3,23.5,28.76,West,270,3.0,4.0,97,0.00,,,0.00,meteohub,2013-03-02 08:51:00,
2013-03-02 02:56:00,24.3,23.5,28.76,West,270,2.0,4.0,97,0.00,,,0.00,meteohub,2013-03-02 08:56:00,
2013-03-02 03:01:00,24.3,23.7,28.77,West,270,3.0,4.0,98,0.00,,,0.00,meteohub,2013-03-02 09:01:00,
2013-03-02 03:06:00,24.3,23.5,28.76,SE,135,1.0,6.0,97,0.00,,,0.00,meteohub,2013-03-02 09:06:00,
2013-03-02 03:12:00,24.1,23.5,28.76,NW,315,2.0,6.0,98,0.00,,,0.00,meteohub,2013-03-02 09:12:00,
2013-03-02 03:17:00,24.1,23.5,28.76,NW,315,2.0,6.0,98,0.00,,,0.00,meteohub,2013-03-02 09:17:00,
2013-03-02 03:22:00,24.1,23.5,28.76,NW,315,2.0,4.0,98,0.00,,,0.00,meteohub,2013-03-02 09:22:00,
2013-03-02 03:27:00,24.1,23.4,28.76,West,270,2.0,4.0,97,0.00,,,0.00,meteohub,2013-03-02 09:27:00,
2013-03-02 03:32:00,24.1,23.4,28.76,West,270,2.0,4.0,97,0.00,,,0.00,meteohub,2013-03-02 09:32:00,
2013-03-02 03:37:00,24.1,23.4,28.76,NW,315,2.0,4.0,97,0.00,,,0.00,meteohub,2013-03-02 09:37:00,
2013-03-02 03:42:00,24.3,23.4,28.76,South,180,2.0,4.0,96,0.00,,,0.00,meteohub,2013-03-02 09:42:00,
2013-03-02 03:47:00,24.3,23.0,28.77,WNW,293,2.0,5.0,95,0.00,,,0.00,meteohub,2013-03-02 09:47:00,
2013-03-02 03:52:00,24.3,23.0,28.76,West,270,5.0,5.0,95,0.00,,,0.00,meteohub,2013-03-02 09:52:00,
2013-03-02 03:57:00,24.3,22.8,28.76,NW,315,4.0,6.0,94,0.00,,,0.00,meteohub,2013-03-02 09:57:00,
2013-03-02 04:02:00,24.3,22.3,28.77,West,270,6.0,6.0,92,0.00,,,0.00,meteohub,2013-03-02 10:02:00,
2013-03-02 04:07:00,24.3,22.3,28.76,NW,315,3.0,6.0,92,0.00,,,0.00,meteohub,2013-03-02 10:07:00,
2013-03-02 04:12:00,24.3,22.3,28.77,West,270,2.0,7.0,92,0.00,,,0.00,meteohub,2013-03-02 10:12:00,
2013-03-02 04:17:00,24.3,22.5,28.77,West,270,6.0,7.0,93,0.00,,,0.00,meteohub,2013-03-02 10:17:00,
2013-03-02 04:23:00,24.1,22.3,28.77,South,180,4.0,7.0,93,0.00,,,0.00,meteohub,2013-03-02 10:23:00,
2013-03-02 04:28:00,24.3,22.3,28.77,South,180,2.0,7.0,92,0.00,,,0.00,meteohub,2013-03-02 10:28:00,
2013-03-02 04:33:00,24.1,22.1,28.76,West,270,4.0,7.0,92,0.00,,,0.00,meteohub,2013-03-02 10:33:00,
2013-03-02 04:38:00,24.1,22.1,28.77,NW,315,4.0,5.0,92,0.00,,,0.00,meteohub,2013-03-02 10:38:00,
2013-03-02 04:43:00,24.1,21.9,28.77,NW,315,4.0,4.0,91,0.00,,,0.00,meteohub,2013-03-02 10:43:00,
2013-03-02 04:48:00,24.1,21.4,28.77,North,0,6.0,8.0,89,0.00,,,0.00,meteohub,2013-03-02 10:48:00,
2013-03-02 04:53:00,24.1,21.4,28.77,West,270,4.0,8.0,89,0.00,,,0.00,meteohub,2013-03-02 10:53:00,
2013-03-02 04:58:00,24.1,21.4,28.77,North,0,4.0,8.0,89,0.00,,,0.00,meteohub,2013-03-02 10:58:00,
2013-03-02 05:03:00,24.1,21.4,28.77,SW,225,4.0,8.0,89,0.00,,,0.00,meteohub,2013-03-02 11:03:00,
2013-03-02 05:08:00,24.1,21.4,28.77,NW,315,4.0,7.0,89,0.00,,,0.00,meteohub,2013-03-02 11:08:00,
2013-03-02 05:13:00,24.1,21.4,28.77,West,270,3.0,7.0,89,0.00,,,0.00,meteohub,2013-03-02 11:13:00,
2013-03-02 05:18:00,24.1,21.4,28.77,East,90,4.0,7.0,89,0.00,,,0.00,meteohub,2013-03-02 11:18:00,
2013-03-02 05:23:00,23.9,21.2,28.77,North,0,4.0,7.0,89,0.00,,,0.00,meteohub,2013-03-02 11:23:00,
2013-03-02 05:28:00,23.9,21.2,28.78,NW,315,6.0,6.0,89,0.00,,,0.00,meteohub,2013-03-02 11:28:00,
2013-03-02 05:33:00,23.9,21.2,28.78,NW,315,2.0,6.0,89,0.00,,,0.00,meteohub,2013-03-02 11:33:00,
2013-03-02 05:38:00,23.9,21.2,28.78,North,0,2.0,7.0,89,0.00,,,0.00,meteohub,2013-03-02 11:38:00,
2013-03-02 05:43:00,23.9,21.2,28.78,South,180,4.0,7.0,89,0.00,,,0.00,meteohub,2013-03-02 11:43:00,
2013-03-02 05:48:00,23.7,21.0,28.78,NE,45,4.0,7.0,89,0.00,,,0.00,meteohub,2013-03-02 11:48:00,
2013-03-02 05:53:00,23.7,21.0,28.79,SW,225,2.0,6.0,89,0.00,,,0.00,meteohub,2013-03-02 11:53:00,
2013-03-02 05:58:00,23.7,21.0,28.79,NE,45,2.0,6.0,89,0.00,,,0.00,meteohub,2013-03-02 11:58:00,
2013-03-02 06:04:00,23.7,20.7,28.79,South,180,4.0,6.0,88,0.00,,,0.00,meteohub,2013-03-02 12:04:00,
2013-03-02 06:09:00,23.7,20.7,28.79,NW,315,3.0,7.0,88,0.00,,,0.00,meteohub,2013-03-02 12:09:00,
2013-03-02 06:14:00,23.7,20.7,28.79,SE,135,4.0,7.0,88,0.00,,,0.00,meteohub,2013-03-02 12:14:00,
2013-03-02 06:19:00,23.5,20.5,28.79,West,270,4.0,9.0,88,0.00,,,0.00,meteohub,2013-03-02 12:19:00,
2013-03-02 06:24:00,23.5,20.8,28.79,West,270,2.0,9.0,89,0.00,,,0.00,meteohub,2013-03-02 12:24:00,
2013-03-02 06:29:00,23.5,20.8,28.79,West,270,4.0,9.0,89,0.00,,,0.00,meteohub,2013-03-02 12:29:00,
2013-03-02 06:34:00,23.5,20.8,28.79,West,270,4.0,7.0,89,0.00,,,0.00,meteohub,2013-03-02 12:34:00,
2013-03-02 06:39:00,23.4,20.7,28.79,NW,315,5.0,7.0,89,0.00,,,0.00,meteohub,2013-03-02 12:39:00,
2013-03-02 06:44:00,23.4,20.7,28.79,SW,225,2.0,5.0,89,0.00,,,0.00,meteohub,2013-03-02 12:44:00,
2013-03-02 06:49:00,23.4,20.7,28.79,West,270,3.0,5.0,89,0.00,,,0.00,meteohub,2013-03-02 12:49:00,
2013-03-02 06:54:00,23.4,20.7,28.79,SW,225,2.0,5.0,89,0.00,,,0.00,meteohub,2013-03-02 12:54:00,
2013-03-02 06:59:00,23.4,20.7,28.80,East,90,3.0,5.0,89,0.00,,,0.00,meteohub,2013-03-02 12:59:00,
2013-03-02 07:04:00,23.4,20.7,28.81,North,0,6.0,6.0,89,0.00,,,0.00,meteohub,2013-03-02 13:04:00,
2013-03-02 07:09:00,23.4,20.7,28.81,North,0,4.0,6.0,89,0.00,,,0.00,meteohub,2013-03-02 13:09:00,
2013-03-02 07:14:00,23.4,20.8,28.81,North,0,2.0,7.0,90,0.00,,,0.00,meteohub,2013-03-02 13:14:00,
2013-03-02 07:19:00,23.5,20.8,28.80,SW,225,3.0,7.0,89,0.00,,,0.00,meteohub,2013-03-02 13:19:00,
2013-03-02 07:24:00,23.5,20.8,28.81,West,270,2.0,5.0,89,0.00,,,0.00,meteohub,2013-03-02 13:24:00,
2013-03-02 07:29:00,23.5,20.8,28.81,NW,315,2.0,5.0,89,0.00,,,0.00,meteohub,2013-03-02 13:29:00,
2013-03-02 07:35:00,23.7,21.0,28.81,West,270,5.0,5.0,89,0.00,,,0.00,meteohub,2013-03-02 13:35:00,
2013-03-02 07:40:00,23.7,21.0,28.80,South,180,2.0,5.0,89,0.00,,,0.00,meteohub,2013-03-02 13:40:00,
2013-03-02 07:45:00,23.7,20.7,28.81,West,270,2.0,5.0,88,0.00,,,0.00,meteohub,2013-03-02 13:45:00,
2013-03-02 07:50:00,23.7,20.5,28.81,West,270,6.0,6.0,87,0.00,,,0.00,meteohub,2013-03-02 13:50:00,
2013-03-02 07:55:00,23.5,19.8,28.80,NE,45,6.0,8.0,85,0.00,,,0.00,meteohub,2013-03-02 13:55:00,
2013-03-02 08:00:00,23.7,20.1,28.81,SW,225,2.0,8.0,86,0.00,,,0.00,meteohub,2013-03-02 14:00:00,
2013-03-02 08:05:00,24.1,20.5,28.81,West,270,4.0,8.0,86,0.00,,,0.00,meteohub,2013-03-02 14:05:00,
2013-03-02 08:10:00,24.3,20.5,28.80,NW,315,4.0,6.0,85,0.00,,,0.00,meteohub,2013-03-02 14:10:00,
2013-03-02 08:15:00,24.4,20.8,28.81,East,90,2.0,4.0,86,0.00,,,0.00,meteohub,2013-03-02 14:15:00,
2013-03-02 08:20:00,24.4,20.7,28.80,SW,225,4.0,4.0,85,0.00,,,0.00,meteohub,2013-03-02 14:20:00,
2013-03-02 08:25:00,24.6,20.8,28.81,NW,315,5.0,5.0,85,0.00,,,0.00,meteohub,2013-03-02 14:25:00,
2013-03-02 08:30:00,24.8,20.7,28.81,WSW,248,3.0,5.0,84,0.00,,,0.00,meteohub,2013-03-02 14:30:00,
2013-03-02 08:35:00,25.0,20.5,28.80,NW,315,4.0,6.0,83,0.00,,,0.00,meteohub,2013-03-02 14:35:00,
2013-03-02 08:40:00,25.2,20.5,28.81,North,0,4.0,6.0,82,0.00,,,0.00,meteohub,2013-03-02 14:40:00,
2013-03-02 08:45:00,25.3,20.7,28.81,NE,45,6.0,7.0,82,0.00,,,0.00,meteohub,2013-03-02 14:45:00,
2013-03-02 08:50:00,25.7,20.7,28.81,West,270,3.0,7.0,81,0.00,,,0.00,meteohub,2013-03-02 14:50:00,
2013-03-02 08:55:00,25.9,20.5,28.81,NW,315,6.0,7.0,80,0.00,,,0.00,meteohub,2013-03-02 14:55:00,
2013-03-02 09:00:00,26.2,20.8,28.81,SW,225,2.0,6.0,80,0.00,,,0.00,meteohub,2013-03-02 15:00:00,
2013-03-02 09:05:00,27.1,21.6,28.80,SW,225,2.0,6.0,79,0.00,,,0.00,meteohub,2013-03-02 15:05:00,
2013-03-02 09:11:00,28.2,21.6,28.81,South,180,5.0,6.0,76,0.00,,,0.00,meteohub,2013-03-02 15:11:00,
2013-03-02 09:16:00,28.6,21.0,28.80,West,270,3.0,5.0,73,0.00,,,0.00,meteohub,2013-03-02 15:16:00,
2013-03-02 09:21:00,29.3,22.1,28.80,NW,315,4.0,7.0,74,0.00,,,0.00,meteohub,2013-03-02 15:21:00,
2013-03-02 09:26:00,30.9,22.6,28.80,SW,225,4.0,7.0,71,0.00,,,0.00,meteohub,2013-03-02 15:26:00,
2013-03-02 09:31:00,31.5,22.8,28.80,NW,315,2.0,6.0,70,0.00,,,0.00,meteohub,2013-03-02 15:31:00,
2013-03-02 09:36:00,32.2,23.2,28.81,NE,45,4.0,6.0,69,0.00,,,0.00,meteohub,2013-03-02 15:36:00,
2013-03-02 09:41:00,32.5,22.8,28.80,NW,315,2.0,6.0,67,0.00,,,0.00,meteohub,2013-03-02 15:41:00,
2013-03-02 09:46:00,32.9,22.8,28.81,NNW,338,2.0,4.0,66,0.00,,,0.00,meteohub,2013-03-02 15:46:00,
2013-03-02 09:51:00,33.1,22.6,28.81,West,270,3.0,4.0,65,0.00,,,0.00,meteohub,2013-03-02 15:51:00,
2013-03-02 09:56:00,33.3,22.5,28.81,West,270,4.0,4.0,64,0.00,,,0.00,meteohub,2013-03-02 15:56:00,
2013-03-02 10:01:00,34.0,23.0,28.81,West,270,5.0,5.0,64,0.00,,,0.00,meteohub,2013-03-02 16:01:00,
2013-03-02 10:06:00,33.8,22.1,28.81,NW,315,4.0,5.0,62,0.00,,,0.00,meteohub,2013-03-02 16:06:00,
2013-03-02 10:11:00,33.1,22.3,28.82,West,270,3.0,5.0,64,0.00,,,0.00,meteohub,2013-03-02 16:11:00,
2013-03-02 10:16:00,32.9,21.7,28.81,West,270,7.0,7.0,63,0.00,,,0.00,meteohub,2013-03-02 16:16:00,
2013-03-02 10:21:00,32.9,22.1,28.81,NW,315,3.0,8.0,64,0.01,,,0.01,meteohub,2013-03-02 16:21:00,
2013-03-02 10:26:00,35.4,24.4,28.82,West,270,3.0,8.0,64,0.01,,,0.01,meteohub,2013-03-02 16:26:00,
2013-03-02 10:31:00,36.0,23.4,28.81,North,0,4.0,8.0,60,0.01,,,0.01,meteohub,2013-03-02 16:31:00,
2013-03-02 10:36:00,36.7,23.7,28.81,North,0,3.0,4.0,59,0.01,,,0.01,meteohub,2013-03-02 16:36:00,
2013-03-02 10:41:00,37.8,24.3,28.81,South,180,4.0,4.0,58,0.01,,,0.01,meteohub,2013-03-02 16:41:00,
2013-03-02 10:46:00,37.2,23.4,28.81,West,270,4.0,6.0,57,0.01,,,0.01,meteohub,2013-03-02 16:46:00,
2013-03-02 10:51:00,36.9,23.5,28.81,North,0,4.0,6.0,58,0.01,,,0.01,meteohub,2013-03-02 16:51:00,
2013-03-02 10:57:00,37.4,23.5,28.81,NW,315,5.0,6.0,57,0.01,,,0.01,meteohub,2013-03-02 16:57:00,
2013-03-02 11:02:00,36.1,22.5,28.81,NW,315,7.0,7.0,57,0.01,,,0.01,meteohub,2013-03-02 17:02:00,
2013-03-02 11:07:00,35.1,22.1,28.80,South,180,6.0,7.0,59,0.01,,,0.01,meteohub,2013-03-02 17:07:00,
2013-03-02 11:12:00,34.7,22.3,28.80,West,270,5.0,7.0,60,0.01,,,0.01,meteohub,2013-03-02 17:12:00,
2013-03-02 11:17:00,36.0,23.0,28.80,NW,315,4.0,7.0,59,0.00,,,0.01,meteohub,2013-03-02 17:17:00,
2013-03-02 11:22:00,36.7,23.4,28.80,NW,315,4.0,6.0,58,0.00,,,0.01,meteohub,2013-03-02 17:22:00,
2013-03-02 11:27:00,37.8,24.8,28.80,South,180,2.0,6.0,59,0.00,,,0.01,meteohub,2013-03-02 17:27:00,
2013-03-02 11:32:00,36.7,22.8,28.80,NW,315,4.0,6.0,57,0.00,,,0.01,meteohub,2013-03-02 17:32:00,
2013-03-02 11:37:00,35.6,22.6,28.79,East,90,4.0,6.0,59,0.01,,,0.02,meteohub,2013-03-02 17:37:00,
2013-03-02 11:42:00,36.9,23.9,28.79,NW,315,2.0,6.0,59,0.01,,,0.02,meteohub,2013-03-02 17:42:00,
2013-03-02 11:47:00,36.5,23.2,28.79,West,270,4.0,6.0,58,0.01,,,0.02,meteohub,2013-03-02 17:47:00,
2013-03-02 11:52:00,36.7,23.4,28.79,South,180,2.0,6.0,58,0.01,,,0.02,meteohub,2013-03-02 17:52:00,
2013-03-02 11:57:00,38.7,23.9,28.79,NW,315,3.0,6.0,55,0.02,,,0.04,meteohub,2013-03-02 17:57:00,
2013-03-02 12:02:00,39.2,24.4,28.79,West,270,2.0,4.0,55,0.02,,,0.04,meteohub,2013-03-02 18:02:00,
2013-03-02 12:07:00,39.9,25.0,28.79,West,270,4.0,4.0,55,0.02,,,0.04,meteohub,2013-03-02 18:07:00,
2013-03-02 12:12:00,40.1,25.2,28.78,North,0,2.0,4.0,55,0.02,,,0.04,meteohub,2013-03-02 18:12:00,
2013-03-02 12:17:00,37.9,23.2,28.79,NW,315,6.0,6.0,55,0.04,,,0.05,meteohub,2013-03-02 18:17:00,
2013-03-02 12:22:00,37.9,24.4,28.78,North,0,3.0,7.0,58,0.04,,,0.05,meteohub,2013-03-02 18:22:00,
2013-03-02 12:27:00,38.3,24.4,28.78,West,270,3.0,7.0,57,0.04,,,0.05,meteohub,2013-03-02 18:27:00,
2013-03-02 12:32:00,39.0,24.6,28.77,West,270,3.0,7.0,56,0.04,,,0.05,meteohub,2013-03-02 18:32:00,
2013-03-02 12:37:00,38.8,24.1,28.77,West,270,3.0,4.0,55,0.02,,,0.05,meteohub,2013-03-02 18:37:00,
2013-03-02 12:42:00,39.6,24.8,28.78,West,270,4.0,4.0,55,0.02,,,0.05,meteohub,2013-03-02 18:42:00,
2013-03-02 12:48:00,39.7,25.0,28.77,North,0,3.0,4.0,55,0.04,,,0.06,meteohub,2013-03-02 18:48:00,
2013-03-02 12:53:00,37.9,23.2,28.77,South,180,4.0,4.0,55,0.04,,,0.06,meteohub,2013-03-02 18:53:00,
2013-03-02 12:58:00,38.7,24.8,28.76,SE,135,2.0,7.0,57,0.02,,,0.06,meteohub,2013-03-02 18:58:00,
2013-03-02 13:03:00,38.8,23.5,28.76,NW,315,2.0,7.0,54,0.02,,,0.06,meteohub,2013-03-02 19:03:00,
2013-03-02 13:08:00,38.3,23.2,28.76,SW,225,4.0,7.0,54,0.02,,,0.06,meteohub,2013-03-02 19:08:00,
2013-03-02 13:13:00,37.9,23.7,28.76,West,270,2.0,5.0,56,0.01,,,0.06,meteohub,2013-03-02 19:13:00,
2013-03-02 13:18:00,39.6,24.8,28.76,SW,225,4.0,5.0,55,0.01,,,0.06,meteohub,2013-03-02 19:18:00,
2013-03-02 13:23:00,39.7,24.1,28.76,NE,45,2.0,7.0,53,0.01,,,0.06,meteohub,2013-03-02 19:23:00,
2013-03-02 13:28:00,40.8,24.1,28.76,West,270,4.0,7.0,51,0.01,,,0.06,meteohub,2013-03-02 19:28:00,
2013-03-02 13:33:00,40.8,25.0,28.76,West,270,5.0,7.0,53,0.01,,,0.06,meteohub,2013-03-02 19:33:00,
2013-03-02 13:38:00,39.6,24.3,28.75,West,270,3.0,5.0,54,0.01,,,0.06,meteohub,2013-03-02 19:38:00,
2013-03-02 13:43:00,39.6,24.3,28.75,West,270,2.0,5.0,54,0.01,,,0.06,meteohub,2013-03-02 19:43:00,
2013-03-02 13:48:00,40.6,23.9,28.75,North,0,3.0,5.0,51,0.00,,,0.06,meteohub,2013-03-02 19:48:00,
2013-03-02 13:53:00,39.9,23.2,28.75,NW,315,5.0,5.0,51,0.00,,,0.06,meteohub,2013-03-02 19:53:00,
2013-03-02 13:58:00,41.0,24.3,28.74,SW,225,2.0,5.0,51,0.00,,,0.06,meteohub,2013-03-02 19:58:00,
2013-03-02 14:03:00,41.0,24.3,28.74,NW,315,3.0,5.0,51,0.00,,,0.06,meteohub,2013-03-02 20:03:00,
2013-03-02 14:08:00,43.2,26.2,28.74,West,270,3.0,6.0,51,0.00,,,0.06,meteohub,2013-03-02 20:08:00,
2013-03-02 14:13:00,41.7,23.9,28.74,SE,135,2.0,6.0,49,0.00,,,0.06,meteohub,2013-03-02 20:13:00,
2013-03-02 14:18:00,42.6,24.3,28.73,North,0,5.0,6.0,48,0.00,,,0.06,meteohub,2013-03-02 20:18:00,
2013-03-02 14:23:00,43.5,25.7,28.73,South,180,2.0,5.0,49,0.00,,,0.06,meteohub,2013-03-02 20:23:00,
2013-03-02 14:28:00,44.6,25.2,28.73,West,270,2.0,5.0,46,0.00,,,0.06,meteohub,2013-03-02 20:28:00,
2013-03-02 14:33:00,43.9,25.0,28.73,NW,315,4.0,5.0,47,0.00,,,0.06,meteohub,2013-03-02 20:33:00,
2013-03-02 14:38:00,43.5,25.2,28.72,North,0,4.0,4.0,48,0.00,,,0.06,meteohub,2013-03-02 20:38:00,
2013-03-02 14:44:00,42.8,25.0,28.73,West,270,4.0,4.0,49,0.00,,,0.06,meteohub,2013-03-02 20:44:00,
2013-03-02 14:49:00,41.9,24.6,28.73,West,270,3.0,5.0,50,0.00,,,0.06,meteohub,2013-03-02 20:49:00,
2013-03-02 14:54:00,44.1,26.6,28.72,West,270,4.0,5.0,50,0.00,,,0.06,meteohub,2013-03-02 20:54:00,
2013-03-02 14:59:00,45.0,26.4,28.73,South,180,4.0,5.0,48,0.00,,,0.06,meteohub,2013-03-02 20:59:00,
2013-03-02 15:04:00,42.8,25.0,28.73,NW,315,1.0,4.0,49,0.00,,,0.06,meteohub,2013-03-02 21:04:00,
2013-03-02 15:09:00,42.1,25.3,28.73,SW,225,4.0,6.0,51,0.00,,,0.06,meteohub,2013-03-02 21:09:00,
2013-03-02 15:14:00,42.4,26.1,28.73,West,270,2.0,6.0,52,0.00,,,0.06,meteohub,2013-03-02 21:14:00,
2013-03-02 15:19:00,43.5,26.6,28.73,SW,225,4.0,6.0,51,0.00,,,0.06,meteohub,2013-03-02 21:19:00,
2013-03-02 15:24:00,43.7,26.2,28.73,SW,225,2.0,5.0,50,0.00,,,0.06,meteohub,2013-03-02 21:24:00,
2013-03-02 15:29:00,41.7,25.9,28.73,SW,225,4.0,4.0,53,0.00,,,0.06,meteohub,2013-03-02 21:29:00,
2013-03-02 15:34:00,41.2,25.9,28.73,SW,225,4.0,8.0,54,0.01,,,0.07,meteohub,2013-03-02 21:34:00,
2013-03-02 15:39:00,40.1,25.2,28.73,West,270,6.0,8.0,55,0.01,,,0.07,meteohub,2013-03-02 21:39:00,
2013-03-02 15:44:00,39.4,24.6,28.72,West,270,6.0,8.0,55,0.01,,,0.07,meteohub,2013-03-02 21:44:00,
2013-03-02 15:49:00,39.9,25.0,28.72,NW,315,5.0,7.0,55,0.01,,,0.07,meteohub,2013-03-02 21:49:00,
2013-03-02 15:54:00,40.3,25.9,28.71,West,270,5.0,7.0,56,0.01,,,0.07,meteohub,2013-03-02 21:54:00,
2013-03-02 15:59:00,40.1,25.7,28.71,SW,225,4.0,6.0,56,0.01,,,0.07,meteohub,2013-03-02 21:59:00,
2013-03-02 16:04:00,41.0,25.7,28.71,West,270,4.0,6.0,54,0.01,,,0.07,meteohub,2013-03-02 22:04:00,
2013-03-02 16:09:00,41.9,26.1,28.71,West,270,2.0,6.0,53,0.01,,,0.07,meteohub,2013-03-02 22:09:00,
2013-03-02 16:14:00,42.1,25.7,28.70,West,270,4.0,6.0,52,0.01,,,0.07,meteohub,2013-03-02 22:14:00,
2013-03-02 16:19:00,39.7,24.4,28.71,West,270,4.0,5.0,54,0.01,,,0.07,meteohub,2013-03-02 22:19:00,
2013-03-02 16:25:00,39.7,25.0,28.71,SW,225,4.0,5.0,55,0.01,,,0.07,meteohub,2013-03-02 22:25:00,
2013-03-02 16:30:00,39.0,24.3,28.71,West,270,4.0,5.0,55,0.01,,,0.07,meteohub,2013-03-02 22:30:00,
2013-03-02 16:35:00,38.3,23.9,28.71,West,270,4.0,6.0,56,0.00,,,0.07,meteohub,2013-03-02 22:35:00,
2013-03-02 16:40:00,38.1,23.9,28.71,West,270,3.0,8.0,56,0.00,,,0.07,meteohub,2013-03-02 22:40:00,
2013-03-02 16:45:00,39.0,24.6,28.71,West,270,4.0,8.0,56,0.00,,,0.07,meteohub,2013-03-02 22:45:00,
2013-03-02 16:50:00,38.1,24.3,28.71,NW,315,4.0,8.0,57,0.00,,,0.07,meteohub,2013-03-02 22:50:00,
2013-03-02 16:55:00,37.9,24.4,28.71,West,270,6.0,6.0,58,0.00,,,0.07,meteohub,2013-03-02 22:55:00,
2013-03-02 17:00:00,37.2,23.7,28.71,West,270,4.0,6.0,58,0.00,,,0.07,meteohub,2013-03-02 23:00:00,
2013-03-02 17:05:00,37.4,23.9,28.71,West,270,5.0,6.0,58,0.00,,,0.07,meteohub,2013-03-02 23:05:00,
2013-03-02 17:10:00,36.9,23.9,28.71,NW,315,6.0,7.0,59,0.00,,,0.07,meteohub,2013-03-02 23:10:00,
2013-03-02 17:15:00,36.9,24.3,28.71,NW,315,4.0,7.0,60,0.00,,,0.07,meteohub,2013-03-02 23:15:00,
2013-03-02 17:20:00,36.9,24.3,28.71,SW,225,3.0,7.0,60,0.00,,,0.07,meteohub,2013-03-02 23:20:00,
2013-03-02 17:25:00,35.2,23.5,28.71,SW,225,4.0,6.0,62,0.00,,,0.07,meteohub,2013-03-02 23:25:00,
2013-03-02 17:30:00,35.6,24.3,28.71,West,270,6.0,6.0,63,0.00,,,0.07,meteohub,2013-03-02 23:30:00,
2013-03-02 17:35:00,34.9,23.5,28.71,West,270,3.0,6.0,63,0.00,,,0.07,meteohub,2013-03-02 23:35:00,
2013-03-02 17:40:00,33.4,23.4,28.71,West,270,4.0,6.0,66,0.00,,,0.07,meteohub,2013-03-02 23:40:00,
2013-03-02 17:45:00,32.9,23.2,28.71,West,270,3.0,6.0,67,0.00,,,0.07,meteohub,2013-03-02 23:45:00,
2013-03-02 17:50:00,32.5,23.2,28.71,West,270,4.0,5.0,68,0.00,,,0.07,meteohub,2013-03-02 23:50:00,
2013-03-02 17:56:00,31.8,22.8,28.71,West,270,3.0,5.0,69,0.00,,,0.07,meteohub,2013-03-02 23:56:00,
2013-03-02 18:01:00,30.7,22.5,28.71,West,270,4.0,5.0,71,0.00,,,0.07,meteohub,2013-03-03 00:01:00,
2013-03-02 18:06:00,30.2,22.3,28.70,West,270,4.0,5.0,72,0.00,,,0.07,meteohub,2013-03-03 00:06:00,
2013-03-02 18:11:00,29.8,22.3,28.70,South,180,3.0,4.0,73,0.00,,,0.07,meteohub,2013-03-03 00:11:00,
2013-03-02 18:16:00,29.7,22.5,28.71,West,270,2.0,4.0,74,0.00,,,0.07,meteohub,2013-03-03 00:16:00,
2013-03-02 18:21:00,29.3,22.3,28.70,South,180,2.0,4.0,75,0.00,,,0.07,meteohub,2013-03-03 00:21:00,
2013-03-02 18:26:00,28.9,22.3,28.70,South,180,2.0,3.0,76,0.00,,,0.07,meteohub,2013-03-03 00:26:00,
2013-03-02 18:31:00,28.6,21.9,28.71,SW,225,2.0,3.0,76,0.00,,,0.07,meteohub,2013-03-03 00:31:00,
2013-03-02 18:36:00,28.4,21.7,28.70,SW,225,2.0,2.0,76,0.00,,,0.07,meteohub,2013-03-03 00:36:00,
2013-03-02 18:41:00,28.2,21.9,28.71,NW,315,2.0,2.0,77,0.00,,,0.07,meteohub,2013-03-03 00:41:00,
2013-03-02 18:46:00,28.2,22.3,28.70,West,270,2.0,4.0,78,0.00,,,0.07,meteohub,2013-03-03 00:46:00,
2013-03-02 18:51:00,28.4,22.5,28.71,West,270,2.0,4.0,78,0.00,,,0.07,meteohub,2013-03-03 00:51:00,
2013-03-02 18:56:00,28.4,22.5,28.71,West,270,3.0,4.0,78,0.00,,,0.07,meteohub,2013-03-03 00:56:00,
2013-03-02 19:01:00,28.4,22.5,28.72,South,180,2.0,4.0,78,0.00,,,0.07,meteohub,2013-03-03 01:01:00,
2013-03-02 19:06:00,28.2,22.6,28.71,SE,135,2.0,4.0,79,0.00,,,0.07,meteohub,2013-03-03 01:06:00,
2013-03-02 19:11:00,27.9,22.3,28.71,SE,135,2.0,4.0,79,0.00,,,0.07,meteohub,2013-03-03 01:11:00,
2013-03-02 19:16:00,27.5,22.1,28.70,West,270,1.0,2.0,80,0.00,,,0.07,meteohub,2013-03-03 01:16:00,
2013-03-02 19:21:00,27.3,21.9,28.70,SW,225,2.0,2.0,80,0.00,,,0.07,meteohub,2013-03-03 01:21:00,
2013-03-02 19:26:00,27.0,21.9,28.70,West,270,2.0,2.0,81,0.00,,,0.07,meteohub,2013-03-03 01:26:00,
2013-03-02 19:31:00,27.0,21.9,28.70,SW,225,2.0,2.0,81,0.00,,,0.07,meteohub,2013-03-03 01:31:00,
2013-03-02 19:37:00,26.8,22.1,28.69,South,180,2.0,2.0,82,0.00,,,0.07,meteohub,2013-03-03 01:37:00,
2013-03-02 19:42:00,26.6,21.9,28.69,South,180,1.0,2.0,82,0.00,,,0.07,meteohub,2013-03-03 01:42:00,
2013-03-02 19:47:00,26.4,21.7,28.69,SE,135,2.0,2.0,82,0.00,,,0.07,meteohub,2013-03-03 01:47:00,
2013-03-02 19:52:00,26.6,22.1,28.69,West,270,2.0,2.0,83,0.00,,,0.07,meteohub,2013-03-03 01:52:00,
2013-03-02 19:57:00,26.8,22.1,28.69,West,270,2.0,2.0,82,0.00,,,0.07,meteohub,2013-03-03 01:57:00,
2013-03-02 20:02:00,26.8,22.1,28.69,West,270,4.0,4.0,82,0.00,,,0.07,meteohub,2013-03-03 02:02:00,
2013-03-02 20:07:00,26.6,21.9,28.69,SE,135,2.0,4.0,82,0.00,,,0.07,meteohub,2013-03-03 02:07:00,
2013-03-02 20:12:00,26.4,21.7,28.69,SE,135,1.0,4.0,82,0.00,,,0.07,meteohub,2013-03-03 02:12:00,
2013-03-02 20:17:00,26.1,21.4,28.69,South,180,1.0,4.0,82,0.00,,,0.07,meteohub,2013-03-03 02:17:00,
2013-03-02 20:22:00,25.9,21.4,28.67,South,180,2.0,2.0,83,0.00,,,0.07,meteohub,2013-03-03 02:22:00,
2013-03-02 20:27:00,25.9,21.4,28.69,SE,135,0.0,2.0,83,0.00,,,0.07,meteohub,2013-03-03 02:27:00,
2013-03-02 20:32:00,26.1,21.9,28.68,SW,225,1.0,2.0,84,0.00,,,0.07,meteohub,2013-03-03 02:32:00,
2013-03-02 20:37:00,26.4,22.3,28.69,West,270,2.0,2.0,84,0.00,,,0.07,meteohub,2013-03-03 02:37:00,
2013-03-02 20:42:00,26.6,22.1,28.68,South,180,2.0,2.0,83,0.00,,,0.07,meteohub,2013-03-03 02:42:00,
2013-03-02 20:47:00,26.6,22.1,28.68,SW,225,2.0,4.0,83,0.00,,,0.07,meteohub,2013-03-03 02:47:00,
2013-03-02 20:52:00,26.6,22.1,28.68,West,270,2.0,4.0,83,0.00,,,0.07,meteohub,2013-03-03 02:52:00,
2013-03-02 20:57:00,26.8,22.3,28.69,SW,225,3.0,3.0,83,0.00,,,0.07,meteohub,2013-03-03 02:57:00,
2013-03-02 21:02:00,26.8,22.1,28.68,SE,135,1.0,3.0,82,0.00,,,0.07,meteohub,2013-03-03 03:02:00,
2013-03-02 21:07:00,26.8,22.3,28.68,West,270,2.0,3.0,83,0.00,,,0.07,meteohub,2013-03-03 03:07:00,
2013-03-02 21:12:00,26.8,22.3,28.68,West,270,1.0,4.0,83,0.00,,,0.07,meteohub,2013-03-03 03:12:00,
2013-03-02 21:17:00,26.8,22.3,28.68,West,270,2.0,4.0,83,0.00,,,0.07,meteohub,2013-03-03 03:17:00,
2013-03-02 21:22:00,26.8,22.3,28.68,South,180,2.0,3.0,83,0.00,,,0.07,meteohub,2013-03-03 03:22:00,
2013-03-02 21:27:00,26.6,22.1,28.69,West,270,4.0,4.0,83,0.00,,,0.07,meteohub,2013-03-03 03:27:00,
2013-03-02 21:32:00,26.6,22.1,28.69,West,270,2.0,4.0,83,0.00,,,0.07,meteohub,2013-03-03 03:32:00,
2013-03-02 21:37:00,26.8,22.3,28.69,West,270,4.0,4.0,83,0.00,,,0.07,meteohub,2013-03-03 03:37:00,
2013-03-02 21:43:00,26.8,22.3,28.69,West,270,3.0,4.0,83,0.00,,,0.07,meteohub,2013-03-03 03:43:00,
2013-03-02 21:48:00,26.8,22.3,28.69,South,180,4.0,4.0,83,0.00,,,0.07,meteohub,2013-03-03 03:48:00,
2013-03-02 21:53:00,26.8,22.3,28.69,West,270,2.0,4.0,83,0.00,,,0.07,meteohub,2013-03-03 03:53:00,
2013-03-02 21:58:00,27.0,22.8,28.68,West,270,3.0,4.0,84,0.00,,,0.07,meteohub,2013-03-03 03:58:00,
2013-03-02 22:03:00,27.0,22.8,28.67,SW,225,2.0,4.0,84,0.00,,,0.07,meteohub,2013-03-03 04:03:00,
2013-03-02 22:08:00,27.0,22.8,28.68,West,270,2.0,3.0,84,0.00,,,0.07,meteohub,2013-03-03 04:08:00,
2013-03-02 22:13:00,27.0,22.8,28.67,West,270,3.0,4.0,84,0.00,,,0.07,meteohub,2013-03-03 04:13:00,
2013-03-02 22:18:00,26.8,22.6,28.67,West,270,3.0,4.0,84,0.00,,,0.07,meteohub,2013-03-03 04:18:00,
2013-03-02 22:23:00,26.8,22.6,28.67,South,180,2.0,4.0,84,0.00,,,0.07,meteohub,2013-03-03 04:23:00,
2013-03-02 22:28:00,26.8,22.6,28.67,South,180,2.0,3.0,84,0.00,,,0.07,meteohub,2013-03-03 04:28:00,
2013-03-02 22:33:00,26.8,22.6,28.67,SW,225,1.0,3.0,84,0.00,,,0.07,meteohub,2013-03-03 04:33:00,
2013-03-02 22:38:00,26.8,22.8,28.66,West,270,2.0,3.0,85,0.00,,,0.07,meteohub,2013-03-03 04:38:00,
2013-03-02 22:43:00,26.8,22.8,28.67,SW,225,3.0,4.0,85,0.00,,,0.07,meteohub,2013-03-03 04:43:00,
2013-03-02 22:48:00,26.8,22.8,28.66,West,270,4.0,4.0,85,0.00,,,0.07,meteohub,2013-03-03 04:48:00,
2013-03-02 22:53:00,26.8,22.8,28.66,SW,225,2.0,4.0,85,0.00,,,0.07,meteohub,2013-03-03 04:53:00,
2013-03-02 22:58:00,26.8,22.8,28.66,South,180,2.0,4.0,85,0.00,,,0.07,meteohub,2013-03-03 04:58:00,
2013-03-02 23:00:00,27.0,23.0,28.66,South,180,2.0,4.0,85,0.00,,,0.07,meteohub,2013-03-03 05:00:00,
2013-03-02 23:02:00,26.8,22.8,28.66,West,270,2.0,4.0,85,0.00,,,0.07,meteohub,2013-03-03 05:02:00,
2013-03-02 23:07:00,27.0,23.0,28.66,SW,225,2.0,4.0,85,0.00,,,0.07,meteohub,2013-03-03 05:07:00,
2013-03-02 23:11:00,26.8,23.2,28.66,East,90,2.0,4.0,86,0.00,,,0.07,meteohub,2013-03-03 05:11:00,
2013-03-02 23:16:00,26.8,23.2,28.66,South,180,2.0,3.0,86,0.00,,,0.07,meteohub,2013-03-03 05:16:00,
2013-03-02 23:18:00,26.8,23.2,28.66,South,180,2.0,3.0,86,0.00,,,0.07,meteohub,2013-03-03 05:18:00,
2013-03-02 23:23:00,26.8,23.2,28.66,South,180,2.0,3.0,86,0.00,,,0.07,meteohub,2013-03-03 05:23:00,
2013-03-02 23:28:00,26.8,23.2,28.65,SE,135,2.0,2.0,86,0.00,,,0.07,meteohub,2013-03-03 05:28:00,
2013-03-02 23:34:00,26.8,23.2,28.65,SW,225,2.0,2.0,86,0.00,,,0.07,meteohub,2013-03-03 05:34:00,
2013-03-02 23:39:00,26.8,23.2,28.66,East,90,1.0,2.0,86,0.00,,,0.07,meteohub,2013-03-03 05:39:00,
2013-03-02 23:44:00,27.0,23.4,28.66,South,180,2.0,2.0,86,0.00,,,0.07,meteohub,2013-03-03 05:44:00,
2013-03-02 23:49:00,27.0,23.4,28.66,SE,135,2.0,3.0,86,0.00,,,0.07,meteohub,2013-03-03 05:49:00,
2013-03-02 23:54:00,27.0,23.4,28.65,South,180,2.0,3.0,86,0.00,,,0.07,meteohub,2013-03-03 05:54:00,
2013-03-02 23:59:00,27.0,23.4,28.65,West,270,2.0,3.0,86,0.00,,,0.07,meteohub,2013-03-03 05:59:00,